Time;durP1;ratioP1;P1;durP2;ratioP2;P2;SDS_P1;SDS_P2;PMS_P1;PMS_P2;Temp;Humidity;BMP_temperature;BMP_pressure;BME280_temperature;BME280_humidity;BME280_pressure;Samples;Min_cycle;Max_cycle;Signal;HPM_P1;HPM_P2
2023/05/17 00:01:05;;;;;;;;;;;;;;;;;;5026023;28;19968;-69
2023/05/17 00:03:33;;;;;;;;;;;;;;;;;;5003847;28;19955;-70
2023/05/17 00:06:01;;;;;;;;;;;;;;;;;;5022289;28;20384;-68
2023/05/17 00:08:26;;;;;;;;;;;;;;;;;;4989434;28;19929;-69
2023/05/17 00:10:51;;;;;;;;;;;;;;;;;;4997045;28;19921;-69
2023/05/17 00:13:17;;;;;;;;;;;;;;;;;;5003469;28;19916;-69
2023/05/17 00:15:42;;;;;;;;;;;;;;;;;;4989990;28;21824;-69
2023/05/17 00:18:07;;;;;;;;;;;;;;;;;;5020388;28;19921;-68
2023/05/17 00:40:40;;;;;;;;;;;;;;;;;;5036895;28;20222;-68
2023/05/17 00:43:06;;;;;;;;;;;;;;;;;;5004680;28;19925;-69
2023/05/17 00:45:31;;;;;;;;;;;;;;;;;;5011014;28;20595;-69
2023/05/17 00:47:57;;;;;;;;;;;;;;;;;;5022223;28;19920;-68
2023/05/17 00:50:22;;;;;;;;;;;;;;;;;;5022250;28;19921;-67
2023/05/17 00:52:50;;;;;;;;;;;;;;;;;;5018342;28;20048;-67
2023/05/17 00:55:18;;;;;;;;;;;;;;;;;;5041004;28;19943;-66
2023/05/17 00:57:43;;;;;;;;;;;;;;;;;;5028540;28;19936;-67
2023/05/17 01:00:09;;;;;;;;;;;;;;;;;;5006136;28;20041;-67
2023/05/17 01:02:36;;;;;;;;;;;;;;;;;;5009128;28;19928;-68
2023/05/17 01:05:07;;;;;;;;;;;;;;;;;;5021771;28;19921;-68
2023/05/17 01:07:35;;;;;;;;;;;;;;;;;;5045299;28;19999;-70
2023/05/17 01:10:00;;;;;;;;;;;;;;;;;;5019677;28;19964;-68
2023/05/17 01:12:28;;;;;;;;;;;;;;;;;;5029540;28;20011;-69
2023/05/17 01:14:53;;;;;;;;;;;;;;;;;;5021411;28;19924;-68
2023/05/17 01:17:19;;;;;;;;;;;;;;;;;;5039127;28;20326;-67
2023/05/17 01:19:47;;;;;;;;;;;;;;;;;;5010167;28;19920;-68
2023/05/17 01:22:12;;;;;;;;;;;;;;;;;;5010059;28;19961;-69
2023/05/17 01:24:38;;;;;;;;;;;;;;;;;;5022620;28;19916;-68
2023/05/17 01:27:05;;;;;;;;;;;;;;;;;;5026954;28;19963;-70
2023/05/17 01:29:31;;;;;;;;;;;;;;;;;;5020935;28;19926;-69
2023/05/17 01:31:56;;;;;;;;;;;;;;;;;;5040804;28;20264;-67
2023/05/17 01:34:21;;;;;;;;;;;;;;;;;;5007822;28;19999;-66
2023/05/17 01:36:46;;;;;;;;;;;;;;;;;;5007256;28;19921;-67
2023/05/17 01:39:14;;;;;;;;;;;;;;;;;;5007267;28;20431;-69
2023/05/17 01:41:41;;;;;;;;;;;;;;;;;;5015675;28;19935;-69
2023/05/17 01:44:06;;;;;;;;;;;;;;;;;;4994071;28;19921;-68
2023/05/17 01:46:34;;;;;;;;;;;;;;;;;;5025954;28;19916;-69
2023/05/17 01:48:59;;;;;;;;;;;;;;;;;;5013318;28;20303;-69
2023/05/17 01:51:27;;;;;;;;;;;;;;;;;;4996412;28;20368;-69
2023/05/17 01:53:52;;;;;;;;;;;;;;;;;;5028377;28;20376;-68
2023/05/17 01:56:17;;;;;;;;;;;;;;;;;;5011107;28;20023;-68
2023/05/17 01:58:43;;;;;;;;;;;;;;;;;;5010924;28;19928;-68
2023/05/17 02:01:08;;;;;;;;;;;;;;;;;;5028233;28;20427;-66
2023/05/17 02:03:33;;;;;;;;;;;;;;;;;;4997655;28;19917;-65
2023/05/17 02:06:01;;;;;;;;;;;;;;;;;;5009811;28;19920;-66
2023/05/17 02:08:26;;;;;;;;;;;;;;;;;;5014597;28;21801;-66
2023/05/17 02:10:52;;;;;;;;;;;;;;;;;;5010768;28;19916;-65
2023/05/17 02:13:17;;;;;;;;;;;;;;;;;;5031253;28;19928;-69
2023/05/17 02:15:42;;;;;;;;;;;;;;;;;;4996886;28;19975;-67
2023/05/17 02:18:07;;;;;;;;;;;;;;;;;;5028979;28;20368;-67
2023/05/17 02:20:33;;;;;;;;;;;;;;;;;;4995992;28;20631;-67
2023/05/17 02:22:58;;;;;;;;;;;;;;;;;;5026911;28;19923;-67
2023/05/17 02:25:23;;;;;;;;;;;;;;;;;;5012964;28;20287;-67
2023/05/17 02:27:48;;;;;;;;;;;;;;;;;;4996979;28;19921;-67
2023/05/17 02:30:16;;;;;;;;;;;;;;;;;;4995723;28;19932;-67
2023/05/17 02:32:42;;;;;;;;;;;;;;;;;;4994005;28;19916;-67
2023/05/17 02:35:07;;;;;;;;;;;;;;;;;;5010826;28;19920;-67
2023/05/17 02:37:32;;;;;;;;;;;;;;;;;;5010045;28;20109;-67
2023/05/17 02:40:00;;;;;;;;;;;;;;;;;;5011094;28;19920;-66
2023/05/17 02:42:26;;;;;;;;;;;;;;;;;;5011966;28;19931;-71
2023/05/17 02:44:54;;;;;;;;;;;;;;;;;;5012017;28;20038;-67
2023/05/17 02:47:20;;;;;;;;;;;;;;;;;;5031210;28;20591;-67
2023/05/17 02:49:45;;;;;;;;;;;;;;;;;;5011283;28;19925;-67
2023/05/17 02:52:13;;;;;;;;;;;;;;;;;;5011207;28;20663;-66
2023/05/17 02:54:38;;;;;;;;;;;;;;;;;;5029211;28;19917;-67
2023/05/17 02:57:04;;;;;;;;;;;;;;;;;;5032012;28;19920;-68
2023/05/17 02:59:29;;;;;;;;;;;;;;;;;;5030893;28;20008;-67
2023/05/17 03:01:57;;;;;;;;;;;;;;;;;;5012432;28;20396;-67
2023/05/17 03:04:22;;;;;;;;;;;;;;;;;;5029615;28;19927;-68
2023/05/17 03:06:49;;;;;;;;;;;;;;;;;;5030183;28;19930;-69
2023/05/17 03:09:15;;;;;;;;;;;;;;;;;;4996696;28;19934;-67
2023/05/17 03:11:40;;;;;;;;;;;;;;;;;;5028137;28;20108;-67
2023/05/17 03:14:05;;;;;;;;;;;;;;;;;;5010973;28;19921;-67
2023/05/17 03:16:34;;;;;;;;;;;;;;;;;;5009542;28;20156;-67
2023/05/17 03:18:59;;;;;;;;;;;;;;;;;;5012857;28;19925;-67
2023/05/17 03:21:24;;;;;;;;;;;;;;;;;;4992606;28;20031;-69
2023/05/17 03:23:52;;;;;;;;;;;;;;;;;;5022712;28;19925;-69
2023/05/17 03:26:21;;;;;;;;;;;;;;;;;;4993498;28;19921;-67
2023/05/17 03:28:50;;;;;;;;;;;;;;;;;;5010084;28;19921;-68
2023/05/17 03:31:17;;;;;;;;;;;;;;;;;;5029925;28;20402;-67
2023/05/17 03:33:45;;;;;;;;;;;;;;;;;;5008842;28;19951;-67
2023/05/17 03:36:10;;;;;;;;;;;;;;;;;;5028680;28;20008;-67
2023/05/17 03:38:36;;;;;;;;;;;;;;;;;;5010842;28;19920;-67
2023/05/17 03:41:01;;;;;;;;;;;;;;;;;;5011529;28;20030;-67
2023/05/17 03:43:27;;;;;;;;;;;;;;;;;;5030153;28;21806;-67
2023/05/17 03:45:55;;;;;;;;;;;;;;;;;;5008698;28;19930;-65
2023/05/17 03:48:20;;;;;;;;;;;;;;;;;;5010658;28;20269;-66
2023/05/17 03:50:45;;;;;;;;;;;;;;;;;;5008914;28;19921;-67
2023/05/17 03:53:13;;;;;;;;;;;;;;;;;;4991804;28;19963;-66
2023/05/17 03:55:43;;;;;;;;;;;;;;;;;;5012892;28;19983;-66
2023/05/17 03:58:09;;;;;;;;;;;;;;;;;;5011651;28;20004;-69
2023/05/17 04:00:36;;;;;;;;;;;;;;;;;;4996140;28;19970;-69
2023/05/17 04:03:05;;;;;;;;;;;;;;;;;;5014586;28;20054;-69
2023/05/17 04:05:33;;;;;;;;;;;;;;;;;;4995390;28;20015;-67
2023/05/17 04:07:58;;;;;;;;;;;;;;;;;;5029945;28;19946;-68
2023/05/17 04:10:26;;;;;;;;;;;;;;;;;;5003108;28;19931;-69
2023/05/17 04:12:51;;;;;;;;;;;;;;;;;;4995204;28;20292;-66
2023/05/17 04:15:19;;;;;;;;;;;;;;;;;;5011772;28;19957;-68
2023/05/17 04:17:47;;;;;;;;;;;;;;;;;;4998508;28;19984;-69
2023/05/17 04:20:12;;;;;;;;;;;;;;;;;;5011239;28;20332;-68
2023/05/17 04:22:38;;;;;;;;;;;;;;;;;;5025521;28;20391;-68
2023/05/17 04:25:03;;;;;;;;;;;;;;;;;;5027961;28;20239;-67
2023/05/17 04:27:31;;;;;;;;;;;;;;;;;;5029199;28;20049;-68
2023/05/17 04:29:59;;;;;;;;;;;;;;;;;;4993924;28;21501;-68
2023/05/17 04:32:27;;;;;;;;;;;;;;;;;;4995702;28;20005;-68
2023/05/17 04:34:58;;;;;;;;;;;;;;;;;;5010689;28;19967;-69
2023/05/17 04:37:23;;;;;;;;;;;;;;;;;;5009591;28;22047;-68
2023/05/17 04:39:51;;;;;;;;;;;;;;;;;;5029275;28;19975;-66
2023/05/17 04:42:17;;;;;;;;;;;;;;;;;;5011198;28;19925;-67
2023/05/17 04:44:42;;;;;;;;;;;;;;;;;;5012915;28;19920;-67
2023/05/17 04:47:07;;;;;;;;;;;;;;;;;;4997045;28;19932;-67
2023/05/17 04:49:36;;;;;;;;;;;;;;;;;;5009759;28;19925;-70
2023/05/17 04:52:01;;;;;;;;;;;;;;;;;;5009558;28;20494;-68
2023/05/17 04:54:32;;;;;;;;;;;;;;;;;;5015966;28;19917;-68
2023/05/17 04:57:00;;;;;;;;;;;;;;;;;;5014417;28;19932;-67
2023/05/17 04:59:25;;;;;;;;;;;;;;;;;;5004681;28;19952;-67
2023/05/17 05:01:56;;;;;;;;;;;;;;;;;;5012603;28;19969;-68
2023/05/17 05:04:24;;;;;;;;;;;;;;;;;;5000600;28;20354;-67
2023/05/17 05:06:49;;;;;;;;;;;;;;;;;;4995787;28;19921;-68
2023/05/17 05:09:17;;;;;;;;;;;;;;;;;;4998323;28;19967;-67
2023/05/17 05:11:43;;;;;;;;;;;;;;;;;;4998494;28;19931;-66
2023/05/17 05:14:10;;;;;;;;;;;;;;;;;;5005131;28;19917;-66
2023/05/17 05:16:36;;;;;;;;;;;;;;;;;;4997688;28;19916;-66
2023/05/17 05:19:01;;;;;;;;;;;;;;;;;;5016137;28;19943;-66
2023/05/17 05:21:29;;;;;;;;;;;;;;;;;;5032442;28;19954;-66
2023/05/17 05:23:57;;;;;;;;;;;;;;;;;;4999428;28;20399;-66
2023/05/17 05:26:23;;;;;;;;;;;;;;;;;;5014838;28;19921;-67
2023/05/17 05:28:51;;;;;;;;;;;;;;;;;;4993714;28;19931;-68
2023/05/17 05:31:17;;;;;;;;;;;;;;;;;;5011872;28;19920;-67
2023/05/17 05:33:45;;;;;;;;;;;;;;;;;;5008350;28;19967;-66
2023/05/17 05:36:15;;;;;;;;;;;;;;;;;;5015161;28;19916;-66
2023/05/17 05:38:40;;;;;;;;;;;;;;;;;;5015153;28;20394;-67
2023/05/17 05:41:08;;;;;;;;;;;;;;;;;;5017056;28;19932;-67
2023/05/17 05:43:34;;;;;;;;;;;;;;;;;;5031754;28;19917;-65
2023/05/17 05:46:00;;;;;;;;;;;;;;;;;;5025180;28;19963;-65
2023/05/17 05:48:27;;;;;;;;;;;;;;;;;;5026822;28;19916;-65
2023/05/17 05:50:55;;;;;;;;;;;;;;;;;;5021859;28;19939;-65
2023/05/17 05:53:21;;;;;;;;;;;;;;;;;;5026918;28;19916;-66
2023/05/17 05:55:46;;;;;;;;;;;;;;;;;;5013040;28;19929;-68
2023/05/17 05:58:14;;;;;;;;;;;;;;;;;;5036365;28;21539;-66
2023/05/17 06:00:39;;;;;;;;;;;;;;;;;;5029233;28;19920;-66
2023/05/17 06:03:05;;;;;;;;;;;;;;;;;;5030629;28;19929;-65
2023/05/17 06:05:30;;;;;;;;;;;;;;;;;;5031575;28;20506;-66
2023/05/17 06:07:56;;;;;;;;;;;;;;;;;;5030677;28;20389;-66
2023/05/17 06:10:21;;;;;;;;;;;;;;;;;;5021319;28;19971;-68
2023/05/17 06:12:49;;;;;;;;;;;;;;;;;;5022824;28;20356;-66
2023/05/17 06:15:14;;;;;;;;;;;;;;;;;;5013315;28;19916;-67
2023/05/17 06:17:40;;;;;;;;;;;;;;;;;;5026839;28;19936;-68
2023/05/17 06:20:07;;;;;;;;;;;;;;;;;;5018289;28;20352;-66
2023/05/17 06:22:33;;;;;;;;;;;;;;;;;;5010345;28;19920;-69
2023/05/17 06:24:58;;;;;;;;;;;;;;;;;;5014089;28;20088;-67
2023/05/17 06:27:26;;;;;;;;;;;;;;;;;;5018634;28;20067;-68
2023/05/17 06:29:52;;;;;;;;;;;;;;;;;;5023138;28;19925;-67
2023/05/17 06:32:17;;;;;;;;;;;;;;;;;;5012755;28;19916;-68
2023/05/17 06:34:45;;;;;;;;;;;;;;;;;;5009623;28;20601;-62
2023/05/17 06:37:10;;;;;;;;;;;;;;;;;;5020011;28;19920;-67
2023/05/17 06:39:38;;;;;;;;;;;;;;;;;;5028850;28;20688;-64
2023/05/17 06:42:03;;;;;;;;;;;;;;;;;;5025667;28;20518;-67
2023/05/17 06:44:28;;;;;;;;;;;;;;;;;;5003948;28;19973;-66
2023/05/17 06:46:56;;;;;;;;;;;;;;;;;;5002434;28;19916;-66
2023/05/17 06:49:22;;;;;;;;;;;;;;;;;;5004161;28;20333;-67
2023/05/17 06:51:47;;;;;;;;;;;;;;;;;;5002944;28;20028;-67
2023/05/17 06:54:12;;;;;;;;;;;;;;;;;;5001087;28;19921;-66
2023/05/17 06:56:40;;;;;;;;;;;;;;;;;;5009147;28;19956;-66
2023/05/17 06:59:06;;;;;;;;;;;;;;;;;;5003495;28;19947;-63
2023/05/17 07:01:33;;;;;;;;;;;;;;;;;;5017278;28;19942;-63
2023/05/17 07:04:02;;;;;;;;;;;;;;;;;;5020967;28;20503;-63
2023/05/17 07:06:27;;;;;;;;;;;;;;;;;;5020024;28;19995;-66
2023/05/17 07:08:52;;;;;;;;;;;;;;;;;;5021899;28;19925;-65
2023/05/17 07:11:20;;;;;;;;;;;;;;;;;;4992021;28;20407;-65
2023/05/17 07:13:46;;;;;;;;;;;;;;;;;;4987279;28;20007;-63
2023/05/17 07:16:16;;;;;;;;;;;;;;;;;;4998750;28;19917;-65
2023/05/17 07:18:41;;;;;;;;;;;;;;;;;;5004500;28;19921;-66
2023/05/17 07:21:07;;;;;;;;;;;;;;;;;;5000472;28;19939;-66
2023/05/17 07:23:35;;;;;;;;;;;;;;;;;;5017196;28;19925;-66
2023/05/17 07:26:01;;;;;;;;;;;;;;;;;;5004237;28;20457;-66
2023/05/17 07:28:29;;;;;;;;;;;;;;;;;;5000291;28;19921;-67
2023/05/17 07:30:54;;;;;;;;;;;;;;;;;;5006928;28;19966;-67
2023/05/17 07:33:25;;;;;;;;;;;;;;;;;;5003675;28;19916;-68
2023/05/17 07:35:53;;;;;;;;;;;;;;;;;;5004509;28;19920;-68
2023/05/17 07:38:21;;;;;;;;;;;;;;;;;;4989374;28;20070;-68
2023/05/17 07:40:47;;;;;;;;;;;;;;;;;;5022544;28;19924;-68
2023/05/17 07:43:12;;;;;;;;;;;;;;;;;;5022197;28;19955;-65
2023/05/17 07:45:40;;;;;;;;;;;;;;;;;;5006843;28;19934;-72
2023/05/17 07:48:05;;;;;;;;;;;;;;;;;;5003074;28;19928;-69
2023/05/17 07:50:31;;;;;;;;;;;;;;;;;;5022986;28;20392;-69
2023/05/17 07:52:57;;;;;;;;;;;;;;;;;;4992887;28;20363;-68
2023/05/17 07:55:22;;;;;;;;;;;;;;;;;;5004105;28;19927;-69
2023/05/17 07:57:52;;;;;;;;;;;;;;;;;;5006758;28;20035;-66
2023/05/17 08:00:18;;;;;;;;;;;;;;;;;;5001837;28;19917;-66
2023/05/17 08:02:43;;;;;;;;;;;;;;;;;;5004179;28;19928;-65
2023/05/17 08:05:09;;;;;;;;;;;;;;;;;;5022282;28;19951;-70
2023/05/17 08:07:35;;;;;;;;;;;;;;;;;;5001656;28;20074;-67
2023/05/17 08:10:00;;;;;;;;;;;;;;;;;;4987680;28;20062;-67
2023/05/17 08:12:26;;;;;;;;;;;;;;;;;;5001724;28;20388;-62
2023/05/17 08:14:54;;;;;;;;;;;;;;;;;;4988197;28;19960;-66
2023/05/17 08:17:21;;;;;;;;;;;;;;;;;;5022136;28;20415;-65
2023/05/17 08:19:49;;;;;;;;;;;;;;;;;;4993468;28;19943;-66
2023/05/17 08:22:17;;;;;;;;;;;;;;;;;;4999047;28;19939;-63
2023/05/17 08:24:45;;;;;;;;;;;;;;;;;;5006411;28;19920;-66
2023/05/17 08:27:10;;;;;;;;;;;;;;;;;;5026219;28;19932;-64
2023/05/17 08:29:36;;;;;;;;;;;;;;;;;;4994254;28;19925;-64
2023/05/17 08:32:01;;;;;;;;;;;;;;;;;;5007551;28;19916;-64
2023/05/17 08:34:29;;;;;;;;;;;;;;;;;;4999900;28;19925;-65
2023/05/17 08:36:55;;;;;;;;;;;;;;;;;;5009305;28;19973;-65
2023/05/17 08:39:20;;;;;;;;;;;;;;;;;;5017321;28;19921;-66
2023/05/17 08:41:46;;;;;;;;;;;;;;;;;;4997929;28;20285;-66
2023/05/17 08:44:12;;;;;;;;;;;;;;;;;;5012301;28;19925;-66
2023/05/17 08:46:38;;;;;;;;;;;;;;;;;;5011458;28;19962;-66
2023/05/17 08:49:04;;;;;;;;;;;;;;;;;;5019355;28;19925;-67
2023/05/17 08:51:29;;;;;;;;;;;;;;;;;;5022222;28;19921;-67
2023/05/17 08:53:54;;;;;;;;;;;;;;;;;;5006289;28;19928;-63
2023/05/17 08:56:20;;;;;;;;;;;;;;;;;;4991764;28;19917;-66
2023/05/17 08:58:45;;;;;;;;;;;;;;;;;;4996095;28;19931;-66
2023/05/17 09:01:13;;;;;;;;;;;;;;;;;;5021795;28;19917;-65
2023/05/17 09:03:41;;;;;;;;;;;;;;;;;;5017819;28;19924;-67
2023/05/17 09:06:09;;;;;;;;;;;;;;;;;;5005933;28;19932;-67
2023/05/17 09:08:38;;;;;;;;;;;;;;;;;;5012683;28;20490;-66
2023/05/17 09:11:03;;;;;;;;;;;;;;;;;;4996773;28;19927;-65
2023/05/17 09:13:29;;;;;;;;;;;;;;;;;;5010029;28;19994;-64
2023/05/17 09:15:56;;;;;;;;;;;;;;;;;;5010430;28;20252;-66
2023/05/17 09:18:22;;;;;;;;;;;;;;;;;;4992633;28;19928;-68
2023/05/17 09:20:50;;;;;;;;;;;;;;;;;;5019797;28;20011;-68
2023/05/17 09:23:16;;;;;;;;;;;;;;;;;;5012210;28;19927;-66
2023/05/17 09:25:41;;;;;;;;;;;;;;;;;;5013664;28;19917;-69
2023/05/17 09:28:06;;;;;;;;;;;;;;;;;;5011371;28;19952;-65
2023/05/17 09:30:36;;;;;;;;;;;;;;;;;;4990420;28;20336;-63
2023/05/17 09:33:02;;;;;;;;;;;;;;;;;;5022652;28;19921;-65
2023/05/17 09:35:32;;;;;;;;;;;;;;;;;;5018751;28;19968;-65
2023/05/17 09:37:58;;;;;;;;;;;;;;;;;;5008955;28;19944;-65
2023/05/17 09:40:24;;;;;;;;;;;;;;;;;;5023191;28;20287;-65
2023/05/17 09:42:50;;;;;;;;;;;;;;;;;;5015511;28;19931;-64
2023/05/17 09:45:15;;;;;;;;;;;;;;;;;;5001289;28;20387;-65
2023/05/17 09:47:44;;;;;;;;;;;;;;;;;;4997207;28;19920;-69
2023/05/17 09:50:12;;;;;;;;;;;;;;;;;;5001438;28;19924;-63
2023/05/17 09:52:38;;;;;;;;;;;;;;;;;;5016001;28;19920;-66
2023/05/17 09:55:04;;;;;;;;;;;;;;;;;;5016367;28;20987;-66
2023/05/17 09:57:31;;;;;;;;;;;;;;;;;;4998972;28;19921;-63
2023/05/17 09:59:57;;;;;;;;;;;;;;;;;;5004635;28;20497;-65
2023/05/17 10:02:22;;;;;;;;;;;;;;;;;;5014476;28;19982;-65
2023/05/17 10:04:50;;;;;;;;;;;;;;;;;;4998004;28;19921;-64
2023/05/17 10:07:16;;;;;;;;;;;;;;;;;;4998423;28;19929;-64
2023/05/17 10:09:45;;;;;;;;;;;;;;;;;;4997383;28;19963;-67
2023/05/17 10:12:13;;;;;;;;;;;;;;;;;;5030909;28;20007;-65
2023/05/17 10:14:38;;;;;;;;;;;;;;;;;;5003396;28;19974;-67
2023/05/17 10:17:03;;;;;;;;;;;;;;;;;;4995777;28;19925;-65
2023/05/17 10:19:31;;;;;;;;;;;;;;;;;;4994523;28;20132;-62
2023/05/17 10:21:57;;;;;;;;;;;;;;;;;;5004113;28;22060;-65
2023/05/17 10:24:25;;;;;;;;;;;;;;;;;;5011006;28;20556;-66
2023/05/17 10:26:53;;;;;;;;;;;;;;;;;;5014457;28;19924;-67
2023/05/17 10:29:23;;;;;;;;;;;;;;;;;;5016176;28;19935;-64
2023/05/17 10:31:49;;;;;;;;;;;;;;;;;;5010868;28;20742;-66
2023/05/17 10:34:15;;;;;;;;;;;;;;;;;;5014250;28;20011;-66
2023/05/17 10:36:40;;;;;;;;;;;;;;;;;;5002133;28;19929;-69
2023/05/17 10:39:06;;;;;;;;;;;;;;;;;;4997237;28;20286;-66
2023/05/17 10:41:32;;;;;;;;;;;;;;;;;;5008190;28;19921;-66
2023/05/17 10:43:59;;;;;;;;;;;;;;;;;;5020624;28;21786;-64
2023/05/17 10:46:25;;;;;;;;;;;;;;;;;;5022818;28;19921;-66
2023/05/17 10:48:53;;;;;;;;;;;;;;;;;;4991506;28;19917;-65
2023/05/17 10:51:23;;;;;;;;;;;;;;;;;;4987864;28;20101;-63
2023/05/17 10:53:48;;;;;;;;;;;;;;;;;;5003753;28;20363;-64
2023/05/17 10:56:14;;;;;;;;;;;;;;;;;;5022254;28;19960;-66
2023/05/17 10:58:42;;;;;;;;;;;;;;;;;;4990385;28;19924;-64
2023/05/17 11:01:11;;;;;;;;;;;;;;;;;;5001983;28;19965;-63
2023/05/17 11:03:38;;;;;;;;;;;;;;;;;;5004254;28;19924;-63
2023/05/17 11:06:06;;;;;;;;;;;;;;;;;;5019667;28;19928;-63
2023/05/17 11:08:31;;;;;;;;;;;;;;;;;;5004294;28;20386;-62
2023/05/17 11:10:59;;;;;;;;;;;;;;;;;;5022575;28;20549;-62
2023/05/17 11:13:27;;;;;;;;;;;;;;;;;;5021786;28;19928;-64
2023/05/17 11:15:52;;;;;;;;;;;;;;;;;;5020635;28;19917;-66
2023/05/17 11:18:17;;;;;;;;;;;;;;;;;;5005825;28;19921;-65
2023/05/17 11:20:43;;;;;;;;;;;;;;;;;;5001509;28;19916;-66
2023/05/17 11:23:08;;;;;;;;;;;;;;;;;;5022386;28;20548;-63
2023/05/17 11:25:36;;;;;;;;;;;;;;;;;;5023293;28;20620;-65
2023/05/17 11:28:01;;;;;;;;;;;;;;;;;;5022333;28;19921;-68
2023/05/17 11:30:27;;;;;;;;;;;;;;;;;;5001946;28;19963;-66
2023/05/17 11:32:52;;;;;;;;;;;;;;;;;;5001800;28;19948;-68
2023/05/17 11:35:21;;;;;;;;;;;;;;;;;;5002715;28;19923;-63
2023/05/17 11:37:48;;;;;;;;;;;;;;;;;;5022552;28;19940;-63
2023/05/17 11:40:17;;;;;;;;;;;;;;;;;;4989343;28;19962;-62
2023/05/17 11:42:45;;;;;;;;;;;;;;;;;;5000906;28;20406;-63
2023/05/17 11:45:10;;;;;;;;;;;;;;;;;;5016611;28;19959;-64
2023/05/17 11:47:36;;;;;;;;;;;;;;;;;;5018012;28;19960;-64
2023/05/17 11:50:01;;;;;;;;;;;;;;;;;;5018432;28;19925;-63
2023/05/17 11:52:27;;;;;;;;;;;;;;;;;;5004520;28;20082;-65
2023/05/17 11:54:52;;;;;;;;;;;;;;;;;;5004891;28;19928;-63
2023/05/17 11:57:21;;;;;;;;;;;;;;;;;;5025213;28;20335;-64
2023/05/17 11:59:46;;;;;;;;;;;;;;;;;;5026960;28;19921;-65
2023/05/17 12:02:17;;;;;;;;;;;;;;;;;;4994759;28;20441;-63
2023/05/17 12:04:45;;;;;;;;;;;;;;;;;;5025471;28;19975;-66
2023/05/17 12:07:10;;;;;;;;;;;;;;;;;;4995403;28;20143;-64
2023/05/17 12:09:38;;;;;;;;;;;;;;;;;;5013477;28;19928;-62
2023/05/17 12:12:03;;;;;;;;;;;;;;;;;;5024375;28;19921;-61
2023/05/17 12:14:29;;;;;;;;;;;;;;;;;;5009198;28;20287;-62
2023/05/17 12:16:57;;;;;;;;;;;;;;;;;;5023793;28;19924;-63
2023/05/17 12:19:23;;;;;;;;;;;;;;;;;;5023843;28;19963;-63
2023/05/17 12:21:51;;;;;;;;;;;;;;;;;;5010552;28;19971;-65
2023/05/17 12:24:16;;;;;;;;;;;;;;;;;;5025426;28;20516;-63
2023/05/17 12:26:44;;;;;;;;;;;;;;;;;;5005060;28;19928;-66
2023/05/17 12:29:13;;;;;;;;;;;;;;;;;;5007710;28;19924;-65
2023/05/17 12:31:38;;;;;;;;;;;;;;;;;;5000560;28;19931;-65
2023/05/17 12:34:04;;;;;;;;;;;;;;;;;;5022243;28;19920;-63
2023/05/17 12:36:32;;;;;;;;;;;;;;;;;;4989139;28;20248;-65
2023/05/17 12:38:57;;;;;;;;;;;;;;;;;;4999938;28;19967;-65
2023/05/17 12:41:24;;;;;;;;;;;;;;;;;;5003651;28;19921;-65
2023/05/17 12:43:52;;;;;;;;;;;;;;;;;;5027402;28;20015;-63
2023/05/17 12:46:19;;;;;;;;;;;;;;;;;;5007386;28;19928;-63
2023/05/17 12:48:44;;;;;;;;;;;;;;;;;;5013732;28;19936;-64
2023/05/17 12:51:15;;;;;;;;;;;;;;;;;;5006393;28;20661;-64
2023/05/17 12:53:40;;;;;;;;;;;;;;;;;;4997730;28;19931;-64
2023/05/17 12:56:05;;;;;;;;;;;;;;;;;;4995941;28;20591;-64
2023/05/17 12:58:31;;;;;;;;;;;;;;;;;;5012790;28;19941;-64
2023/05/17 13:00:59;;;;;;;;;;;;;;;;;;5026473;28;19945;-63
2023/05/17 13:03:27;;;;;;;;;;;;;;;;;;5024344;28;19921;-65
2023/05/17 13:05:55;;;;;;;;;;;;;;;;;;5008259;28;20062;-64
2023/05/17 13:08:20;;;;;;;;;;;;;;;;;;4995950;28;19974;-62
2023/05/17 13:10:46;;;;;;;;;;;;;;;;;;5024417;28;20332;-64
2023/05/17 13:13:11;;;;;;;;;;;;;;;;;;5003380;28;19917;-65
2023/05/17 13:15:36;;;;;;;;;;;;;;;;;;5003969;28;19932;-65
2023/05/17 13:18:01;;;;;;;;;;;;;;;;;;5009126;28;19921;-66
2023/05/17 13:20:27;;;;;;;;;;;;;;;;;;5006089;28;20347;-62
2023/05/17 13:22:53;;;;;;;;;;;;;;;;;;4993920;28;20059;-63
2023/05/17 13:25:18;;;;;;;;;;;;;;;;;;5004465;28;19948;-62
2023/05/17 13:27:48;;;;;;;;;;;;;;;;;;5010924;28;19928;-63
2023/05/17 13:30:18;;;;;;;;;;;;;;;;;;4991668;28;19921;-62
2023/05/17 13:32:43;;;;;;;;;;;;;;;;;;5023571;28;20303;-63
2023/05/17 13:35:10;;;;;;;;;;;;;;;;;;5022695;28;19921;-61
2023/05/17 13:37:36;;;;;;;;;;;;;;;;;;5022918;28;19921;-64
2023/05/17 13:40:01;;;;;;;;;;;;;;;;;;5022499;28;19979;-62
2023/05/17 13:42:27;;;;;;;;;;;;;;;;;;5024183;28;19983;-64
2023/05/17 13:44:54;;;;;;;;;;;;;;;;;;5033296;28;20359;-64
2023/05/17 13:47:22;;;;;;;;;;;;;;;;;;5010223;28;19940;-63
2023/05/17 13:49:50;;;;;;;;;;;;;;;;;;5019940;28;19928;-63
2023/05/17 13:52:17;;;;;;;;;;;;;;;;;;4995949;28;19917;-62
2023/05/17 13:54:42;;;;;;;;;;;;;;;;;;5033474;28;20355;-64
2023/05/17 13:57:08;;;;;;;;;;;;;;;;;;4995057;28;21502;-64
2023/05/17 13:59:33;;;;;;;;;;;;;;;;;;4995565;28;20502;-64
2023/05/17 14:02:03;;;;;;;;;;;;;;;;;;5011704;28;20306;-65
2023/05/17 14:04:30;;;;;;;;;;;;;;;;;;4994537;28;20364;-66
2023/05/17 14:06:56;;;;;;;;;;;;;;;;;;4992454;28;19982;-65
2023/05/17 14:09:21;;;;;;;;;;;;;;;;;;5032304;28;19921;-65
2023/05/17 14:11:49;;;;;;;;;;;;;;;;;;5031830;28;20212;-63
2023/05/17 14:14:15;;;;;;;;;;;;;;;;;;5033470;28;20400;-62
2023/05/17 14:16:40;;;;;;;;;;;;;;;;;;5012405;28;19924;-64
2023/05/17 14:19:08;;;;;;;;;;;;;;;;;;4992233;28;19947;-63
2023/05/17 14:21:36;;;;;;;;;;;;;;;;;;5010087;28;20681;-64
2023/05/17 14:24:02;;;;;;;;;;;;;;;;;;5012010;28;20031;-63
2023/05/17 14:26:27;;;;;;;;;;;;;;;;;;4993483;28;19921;-65
2023/05/17 14:28:52;;;;;;;;;;;;;;;;;;5006643;28;19927;-62
2023/05/17 14:31:17;;;;;;;;;;;;;;;;;;4997581;28;19927;-64
2023/05/17 14:33:43;;;;;;;;;;;;;;;;;;5009673;28;19920;-63
2023/05/17 14:36:10;;;;;;;;;;;;;;;;;;5015976;28;19913;-62
2023/05/17 14:38:36;;;;;;;;;;;;;;;;;;5009517;28;20284;-63
2023/05/17 14:41:02;;;;;;;;;;;;;;;;;;5033596;28;19932;-63
2023/05/17 14:43:29;;;;;;;;;;;;;;;;;;4996801;28;19935;-63
2023/05/17 14:45:55;;;;;;;;;;;;;;;;;;5023350;28;19913;-64
2023/05/17 14:48:20;;;;;;;;;;;;;;;;;;5002042;28;19920;-63
2023/05/17 14:50:46;;;;;;;;;;;;;;;;;;4989782;28;19927;-65
2023/05/17 14:53:14;;;;;;;;;;;;;;;;;;5003568;28;20099;-63
2023/05/17 14:55:42;;;;;;;;;;;;;;;;;;5024047;28;19928;-64
2023/05/17 14:58:12;;;;;;;;;;;;;;;;;;4992747;28;19921;-64
2023/05/17 15:00:40;;;;;;;;;;;;;;;;;;5004807;28;20324;-64
2023/05/17 15:03:05;;;;;;;;;;;;;;;;;;4996713;28;19964;-64
2023/05/17 15:05:33;;;;;;;;;;;;;;;;;;5021676;28;20340;-64
2023/05/17 15:08:01;;;;;;;;;;;;;;;;;;4990807;28;21899;-63
2023/05/17 15:10:30;;;;;;;;;;;;;;;;;;4996350;28;19962;-63
2023/05/17 15:12:58;;;;;;;;;;;;;;;;;;4996424;28;19924;-63
2023/05/17 15:15:26;;;;;;;;;;;;;;;;;;5001562;28;19921;-63
2023/05/17 15:17:52;;;;;;;;;;;;;;;;;;5020594;28;19932;-63
2023/05/17 15:20:21;;;;;;;;;;;;;;;;;;5021329;28;19932;-64
2023/05/17 15:22:47;;;;;;;;;;;;;;;;;;4989671;28;19917;-63
2023/05/17 15:25:12;;;;;;;;;;;;;;;;;;4989892;28;20585;-66
2023/05/17 15:27:40;;;;;;;;;;;;;;;;;;5007091;28;20003;-64
2023/05/17 15:30:07;;;;;;;;;;;;;;;;;;4987104;28;19963;-63
2023/05/17 15:32:33;;;;;;;;;;;;;;;;;;5023720;28;20340;-64
2023/05/17 15:35:01;;;;;;;;;;;;;;;;;;4994839;28;19921;-64
2023/05/17 15:37:27;;;;;;;;;;;;;;;;;;4999718;28;20564;-65
2023/05/17 15:39:55;;;;;;;;;;;;;;;;;;5005273;28;20070;-65
2023/05/17 15:42:20;;;;;;;;;;;;;;;;;;5022251;28;19921;-63
2023/05/17 15:44:45;;;;;;;;;;;;;;;;;;5003666;28;19921;-62
2023/05/17 15:47:13;;;;;;;;;;;;;;;;;;5006471;28;19928;-62
2023/05/17 15:49:41;;;;;;;;;;;;;;;;;;5002526;28;20082;-62
2023/05/17 15:52:06;;;;;;;;;;;;;;;;;;5002734;28;19935;-63
2023/05/17 15:54:34;;;;;;;;;;;;;;;;;;5004354;28;20323;-63
2023/05/17 15:57:02;;;;;;;;;;;;;;;;;;5004283;28;20293;-63
2023/05/17 15:59:27;;;;;;;;;;;;;;;;;;5003381;28;19929;-64
2023/05/17 16:01:55;;;;;;;;;;;;;;;;;;4993712;28;19931;-64
2023/05/17 16:04:23;;;;;;;;;;;;;;;;;;5021491;28;19921;-64
2023/05/17 16:06:51;;;;;;;;;;;;;;;;;;5000955;28;19964;-65
2023/05/17 16:09:16;;;;;;;;;;;;;;;;;;5010781;28;21466;-64
2023/05/17 16:11:44;;;;;;;;;;;;;;;;;;5004340;28;20959;-64
2023/05/17 16:14:10;;;;;;;;;;;;;;;;;;5022816;28;19924;-64
2023/05/17 16:16:36;;;;;;;;;;;;;;;;;;5005804;28;20001;-63
2023/05/17 16:19:03;;;;;;;;;;;;;;;;;;4992257;28;19936;-63
2023/05/17 16:21:28;;;;;;;;;;;;;;;;;;4987093;28;19922;-62
2023/05/17 16:23:54;;;;;;;;;;;;;;;;;;5021145;28;20413;-63
2023/05/17 16:26:20;;;;;;;;;;;;;;;;;;5000844;28;19921;-62
2023/05/17 16:28:48;;;;;;;;;;;;;;;;;;5011650;28;19942;-63
2023/05/17 16:31:13;;;;;;;;;;;;;;;;;;5021758;28;20438;-63
2023/05/17 16:33:40;;;;;;;;;;;;;;;;;;5002450;28;19921;-63
2023/05/17 16:36:05;;;;;;;;;;;;;;;;;;4993059;28;19916;-62
2023/05/17 16:38:30;;;;;;;;;;;;;;;;;;5019993;28;19935;-63
2023/05/17 16:40:55;;;;;;;;;;;;;;;;;;4990099;28;19953;-62
2023/05/17 16:43:23;;;;;;;;;;;;;;;;;;5013485;28;19935;-63
2023/05/17 16:45:51;;;;;;;;;;;;;;;;;;5016526;28;19942;-62
2023/05/17 16:48:19;;;;;;;;;;;;;;;;;;5033935;28;20101;-62
2023/05/17 16:50:44;;;;;;;;;;;;;;;;;;5015100;28;20026;-62
2023/05/17 16:53:12;;;;;;;;;;;;;;;;;;5013959;28;19921;-62
2023/05/17 16:55:40;;;;;;;;;;;;;;;;;;5032088;28;20008;-62
2023/05/17 16:58:06;;;;;;;;;;;;;;;;;;5033899;28;19916;-61
2023/05/17 17:00:32;;;;;;;;;;;;;;;;;;4999551;28;19960;-61